Time;durP1;ratioP1;P1;durP2;ratioP2;P2;SDS_P1;SDS_P2;PMS_P1;PMS_P2;Temp;Humidity;BMP_temperature;BMP_pressure;BME280_temperature;BME280_humidity;BME280_pressure;Samples;Min_cycle;Max_cycle;Signal;HPM_P1;HPM_P2
2024/04/12 00:01:46;;;;;;;5.53;2.50;;;;;;;;;;5382662;26;20037;-59
2024/04/12 00:04:15;;;;;;;3.67;2.15;;;;;;;;;;5382963;26;20404;-59
2024/04/12 00:06:42;;;;;;;3.55;2.47;;;;;;;;;;5382579;26;20000;-59
2024/04/12 00:09:09;;;;;;;6.63;2.72;;;;;;;;;;5382962;26;20004;-59
2024/04/12 00:11:38;;;;;;;2.63;2.05;;;;;;;;;;5383009;26;19992;-59
2024/04/12 00:14:04;;;;;;;3.60;2.85;;;;;;;;;;5382927;26;19996;-59
2024/04/12 00:16:30;;;;;;;3.03;2.33;;;;;;;;;;5383163;26;20032;-59
2024/04/12 00:19:12;;;;;;;4.60;2.95;;;;;;;;;;5382829;26;20116;-59
2024/04/12 00:21:41;;;;;;;4.57;2.70;;;;;;;;;;5382001;26;19996;-59
2024/04/12 00:24:10;;;;;;;3.28;2.67;;;;;;;;;;5379100;26;20003;-56
2024/04/12 00:26:36;;;;;;;4.03;2.20;;;;;;;;;;5382528;26;20004;-59
2024/04/12 00:29:07;;;;;;;5.07;3.00;;;;;;;;;;5382775;26;20327;-59
2024/04/12 00:31:42;;;;;;;5.68;2.65;;;;;;;;;;5383000;26;20056;-59
2024/04/12 00:34:07;;;;;;;5.28;3.00;;;;;;;;;;5382823;26;19996;-59
2024/04/12 00:36:34;;;;;;;4.53;3.08;;;;;;;;;;5382649;26;20074;-58
2024/04/12 00:39:01;;;;;;;4.85;3.35;;;;;;;;;;5383215;26;19996;-59
2024/04/12 00:41:27;;;;;;;4.55;2.50;;;;;;;;;;5382633;26;19997;-59
2024/04/12 00:43:52;;;;;;;3.70;2.50;;;;;;;;;;5382481;26;20027;-59
2024/04/12 00:46:23;;;;;;;4.88;2.78;;;;;;;;;;5382390;26;19999;-59
2024/04/12 00:48:51;;;;;;;4.20;2.65;;;;;;;;;;5382535;26;20002;-59
2024/04/12 00:51:18;;;;;;;5.13;2.92;;;;;;;;;;5382341;26;19996;-57
2024/04/12 00:53:48;;;;;;;7.00;3.08;;;;;;;;;;5381191;26;20004;-58
2024/04/12 00:56:14;;;;;;;3.37;2.70;;;;;;;;;;5382170;26;20011;-59
2024/04/12 00:58:42;;;;;;;3.80;2.88;;;;;;;;;;5382858;26;20651;-58
2024/04/12 01:01:15;;;;;;;3.83;2.53;;;;;;;;;;5382408;26;19992;-59
2024/04/12 01:03:45;;;;;;;4.22;2.95;;;;;;;;;;5382471;26;20311;-59
2024/04/12 01:06:15;;;;;;;6.15;2.58;;;;;;;;;;5382408;26;19996;-59
2024/04/12 01:08:43;;;;;;;3.03;2.38;;;;;;;;;;5382243;26;19992;-58
2024/04/12 01:11:09;;;;;;;4.93;3.08;;;;;;;;;;5382667;26;20380;-59
2024/04/12 01:13:36;;;;;;;3.13;2.40;;;;;;;;;;5382622;26;20065;-59
2024/04/12 01:16:02;;;;;;;5.10;2.58;;;;;;;;;;5382183;26;19992;-57
2024/04/12 01:18:28;;;;;;;3.72;2.47;;;;;;;;;;5382236;26;19997;-58
2024/04/12 01:20:54;;;;;;;5.30;2.78;;;;;;;;;;5382195;26;20000;-59
2024/04/12 01:23:20;;;;;;;3.72;2.42;;;;;;;;;;5382458;26;19992;-59
2024/04/12 01:25:47;;;;;;;3.75;2.53;;;;;;;;;;5382267;26;20000;-59
2024/04/12 01:28:15;;;;;;;4.60;2.75;;;;;;;;;;5382247;26;20322;-59
2024/04/12 01:30:46;;;;;;;8.18;2.67;;;;;;;;;;5382009;26;20015;-59
2024/04/12 01:33:12;;;;;;;3.95;2.47;;;;;;;;;;5381907;26;20081;-59
2024/04/12 01:35:44;;;;;;;4.72;3.10;;;;;;;;;;5381396;26;19996;-57
2024/04/12 01:38:17;;;;;;;8.40;3.22;;;;;;;;;;5382121;26;20327;-59
2024/04/12 01:40:46;;;;;;;7.32;2.88;;;;;;;;;;5381714;26;20000;-58
2024/04/12 01:43:18;;;;;;;6.35;2.80;;;;;;;;;;5382115;26;20028;-59
2024/04/12 01:45:44;;;;;;;3.92;3.08;;;;;;;;;;5381697;26;19992;-58
2024/04/12 01:48:11;;;;;;;6.95;3.28;;;;;;;;;;5381674;26;19996;-59
2024/04/12 01:50:40;;;;;;;4.53;2.95;;;;;;;;;;5381705;26;20007;-58
2024/04/12 01:53:09;;;;;;;3.72;2.22;;;;;;;;;;5381241;26;20001;-59
2024/04/12 01:55:39;;;;;;;4.68;2.95;;;;;;;;;;5381268;26;20000;-59
2024/04/12 01:58:05;;;;;;;4.18;3.13;;;;;;;;;;5381313;26;20424;-59
2024/04/12 02:00:33;;;;;;;3.83;2.78;;;;;;;;;;5381188;26;19997;-57
2024/04/12 02:02:59;;;;;;;5.25;3.53;;;;;;;;;;5379466;26;19993;-59
2024/04/12 02:05:29;;;;;;;3.47;2.30;;;;;;;;;;5382302;26;20000;-58
2024/04/12 02:07:56;;;;;;;3.83;2.50;;;;;;;;;;5384500;26;20446;-58
2024/04/12 02:10:26;;;;;;;3.92;2.05;;;;;;;;;;5385171;26;19997;-58
2024/04/12 02:12:55;;;;;;;4.43;2.72;;;;;;;;;;5384787;26;20028;-59
2024/04/12 02:15:28;;;;;;;6.50;3.13;;;;;;;;;;5384868;26;20000;-59
2024/04/12 02:17:57;;;;;;;7.10;2.97;;;;;;;;;;5384908;26;19996;-58
2024/04/12 02:20:36;;;;;;;3.33;2.63;;;;;;;;;;5384756;26;20439;-59
2024/04/12 02:23:05;;;;;;;5.47;2.92;;;;;;;;;;5384804;26;20310;-59
2024/04/12 02:25:39;;;;;;;4.32;3.03;;;;;;;;;;5384707;26;20000;-58
2024/04/12 02:28:09;;;;;;;6.35;3.90;;;;;;;;;;5384329;26;20000;-57
2024/04/12 02:30:42;;;;;;;8.65;2.95;;;;;;;;;;5384408;26;20004;-58
2024/04/12 02:33:09;;;;;;;7.55;3.58;;;;;;;;;;5384666;26;20338;-58
2024/04/12 02:35:41;;;;;;;5.15;3.15;;;;;;;;;;5384747;26;20067;-58
2024/04/12 02:38:07;;;;;;;5.90;3.65;;;;;;;;;;5384669;26;20000;-58
2024/04/12 02:40:32;;;;;;;3.20;2.30;;;;;;;;;;5384118;26;20008;-58
2024/04/12 02:42:58;;;;;;;18.35;3.58;;;;;;;;;;5384171;26;20340;-59
2024/04/12 02:45:27;;;;;;;6.13;2.95;;;;;;;;;;5384331;26;20319;-58
2024/04/12 02:47:53;;;;;;;6.32;3.00;;;;;;;;;;5384108;26;20426;-59
2024/04/12 02:50:19;;;;;;;3.53;3.05;;;;;;;;;;5384609;26;19996;-58
2024/04/12 02:52:47;;;;;;;7.97;3.90;;;;;;;;;;5382253;26;20430;-59
2024/04/12 02:55:13;;;;;;;9.18;3.88;;;;;;;;;;5384341;26;20007;-59
2024/04/12 02:57:41;;;;;;;6.22;3.00;;;;;;;;;;5383953;26;20003;-59
2024/04/12 03:00:21;;;;;;;4.60;3.10;;;;;;;;;;5383920;26;20000;-59
2024/04/12 03:02:47;;;;;;;6.82;3.13;;;;;;;;;;5384288;26;20321;-59
2024/04/12 03:05:13;;;;;;;6.80;3.42;;;;;;;;;;5383912;26;20007;-59
2024/04/12 03:07:41;;;;;;;7.18;3.22;;;;;;;;;;5383843;26;20127;-59
2024/04/12 03:10:07;;;;;;;6.30;3.15;;;;;;;;;;5384160;26;20000;-58
2024/04/12 03:12:36;;;;;;;3.78;2.67;;;;;;;;;;5383759;26;20007;-59
2024/04/12 03:15:04;;;;;;;5.10;2.75;;;;;;;;;;5383661;26;20072;-59
2024/04/12 03:17:32;;;;;;;5.47;3.90;;;;;;;;;;5383150;26;20008;-59
2024/04/12 03:19:58;;;;;;;5.95;3.20;;;;;;;;;;5384009;26;19992;-59
2024/04/12 03:22:23;;;;;;;4.95;2.85;;;;;;;;;;5383822;26;20469;-59
2024/04/12 03:24:50;;;;;;;3.50;2.63;;;;;;;;;;5383605;26;20003;-57
2024/04/12 03:27:16;;;;;;;5.07;2.75;;;;;;;;;;5383673;26;19996;-58
2024/04/12 03:29:42;;;;;;;5.13;3.05;;;;;;;;;;5384113;26;20006;-59
2024/04/12 03:32:08;;;;;;;5.38;3.22;;;;;;;;;;5383676;26;20003;-58
2024/04/12 03:34:36;;;;;;;5.32;3.17;;;;;;;;;;5384027;26;19993;-58
2024/04/12 03:39:47;;;;;;;5.00;3.88;;;;;;;;;;5385085;26;20010;-58
2024/04/12 03:42:18;;;;;;;7.28;3.25;;;;;;;;;;5383588;26;20006;-58
2024/04/12 03:44:44;;;;;;;;;;;;;;;;;;5384173;26;20029;-58
2024/04/12 03:47:10;;;;;;;5.07;3.58;;;;;;;;;;5383758;26;19925;-59
2024/04/12 03:49:39;;;;;;;4.97;3.60;;;;;;;;;;5383446;26;20077;-58
2024/04/12 03:52:05;;;;;;;6.72;3.55;;;;;;;;;;5383466;26;20065;-58
2024/04/12 03:54:31;;;;;;;6.43;4.05;;;;;;;;;;5383414;26;20000;-59
2024/04/12 03:56:58;;;;;;;6.30;4.03;;;;;;;;;;5383697;26;19996;-59
2024/04/12 03:59:27;;;;;;;3.97;3.20;;;;;;;;;;5383458;26;20007;-59
2024/04/12 04:01:54;;;;;;;3.80;3.03;;;;;;;;;;5383985;26;20134;-59
2024/04/12 04:04:25;;;;;;;7.63;4.03;;;;;;;;;;5383379;26;20025;-59
2024/04/12 04:06:54;;;;;;;;;;;;;;;;;;5384041;26;20011;-58
2024/04/12 04:09:20;;;;;;;3.95;3.10;;;;;;;;;;5383318;26;20048;-58
2024/04/12 04:11:47;;;;;;;4.72;3.53;;;;;;;;;;5383289;26;20011;-59
2024/04/12 04:14:13;;;;;;;7.65;3.22;;;;;;;;;;5383125;26;20065;-58
2024/04/12 04:16:42;;;;;;;6.57;3.25;;;;;;;;;;5383151;26;20362;-58
2024/04/12 04:19:12;;;;;;;4.50;3.22;;;;;;;;;;5383139;26;20001;-58
2024/04/12 04:21:41;;;;;;;4.20;2.72;;;;;;;;;;5383066;26;19999;-59
2024/04/12 04:24:11;;;;;;;4.88;3.20;;;;;;;;;;5382605;26;20008;-57
2024/04/12 04:26:37;;;;;;;5.20;3.20;;;;;;;;;;5382581;26;20003;-57
2024/04/12 04:29:10;;;;;;;6.57;3.63;;;;;;;;;;5380933;26;20006;-58
2024/04/12 04:31:46;;;;;;;4.57;3.13;;;;;;;;;;5382507;26;20007;-57
2024/04/12 04:34:13;;;;;;;4.65;3.20;;;;;;;;;;5382600;26;20033;-58
2024/04/12 04:36:39;;;;;;;4.20;3.28;;;;;;;;;;5382271;26;20000;-57
2024/04/12 04:39:08;;;;;;;4.82;3.15;;;;;;;;;;5382486;26;20008;-58
2024/04/12 04:41:34;;;;;;;6.45;3.58;;;;;;;;;;5382315;26;20076;-57
2024/04/12 04:44:00;;;;;;;4.47;3.08;;;;;;;;;;5382157;26;20007;-58
2024/04/12 04:46:27;;;;;;;4.90;3.42;;;;;;;;;;5382126;26;20008;-57
2024/04/12 04:48:53;;;;;;;2.88;2.35;;;;;;;;;;5382367;26;20000;-56
2024/04/12 04:51:19;;;;;;;4.28;2.80;;;;;;;;;;5382612;26;20433;-58
2024/04/12 04:53:46;;;;;;;3.83;3.15;;;;;;;;;;5382675;26;19992;-58
2024/04/12 04:56:24;;;;;;;4.22;2.90;;;;;;;;;;5382462;26;19993;-58
2024/04/12 04:58:53;;;;;;;7.63;3.13;;;;;;;;;;5382097;26;20395;-58
2024/04/12 05:01:19;;;;;;;3.28;2.40;;;;;;;;;;5382200;26;20000;-59
2024/04/12 05:03:49;;;;;;;5.20;3.63;;;;;;;;;;5380307;26;20458;-59
2024/04/12 05:06:24;;;;;;;5.00;3.63;;;;;;;;;;5382187;26;20006;-59
2024/04/12 05:08:52;;;;;;;4.70;3.38;;;;;;;;;;5382144;26;20004;-59
2024/04/12 05:11:18;;;;;;;5.53;4.03;;;;;;;;;;5382433;26;19993;-59
2024/04/12 05:13:49;;;;;;;4.68;3.10;;;;;;;;;;5382366;26;20000;-58
2024/04/12 05:16:15;;;;;;;4.28;3.38;;;;;;;;;;5382659;26;20032;-59
2024/04/12 05:18:47;;;;;;;5.45;3.42;;;;;;;;;;5382132;26;19996;-58
2024/04/12 05:21:14;;;;;;;5.65;4.55;;;;;;;;;;5382136;26;20326;-59
2024/04/12 05:23:40;;;;;;;6.07;3.80;;;;;;;;;;5382488;26;19996;-57
2024/04/12 05:26:06;;;;;;;5.38;3.63;;;;;;;;;;5381986;26;19992;-58
2024/04/12 05:28:59;;;;;;;7.93;3.60;;;;;;;;;;5381711;26;20004;-57
2024/04/12 05:31:29;;;;;;;5.25;3.45;;;;;;;;;;5380666;26;19999;-58
2024/04/12 05:33:55;;;;;;;4.93;3.47;;;;;;;;;;5381878;26;20004;-58
2024/04/12 05:36:22;;;;;;;4.95;3.42;;;;;;;;;;5381693;26;20019;-58
2024/04/12 05:38:48;;;;;;;4.03;2.95;;;;;;;;;;5381597;26;20311;-57
2024/04/12 05:41:15;;;;;;;6.32;3.60;;;;;;;;;;5384422;26;19992;-58
2024/04/12 05:43:41;;;;;;;5.70;3.67;;;;;;;;;;5384993;26;20381;-57
2024/04/12 05:46:07;;;;;;;6.78;4.28;;;;;;;;;;5384940;26;20074;-57
2024/04/12 05:48:36;;;;;;;6.07;4.05;;;;;;;;;;5384966;26;19996;-59
2024/04/12 05:51:02;;;;;;;3.40;2.90;;;;;;;;;;5384916;26;19988;-58
2024/04/12 05:53:30;;;;;;;6.95;3.80;;;;;;;;;;5384817;26;20335;-58
2024/04/12 05:58:41;;;;;;;7.07;3.63;;;;;;;;;;5385656;26;20069;-58
2024/04/12 06:01:07;;;;;;;5.13;3.60;;;;;;;;;;5384491;26;20066;-60
2024/04/12 06:03:34;;;;;;;6.32;3.97;;;;;;;;;;5385120;26;20372;-59
2024/04/12 06:06:00;;;;;;;4.95;3.47;;;;;;;;;;5384941;26;20007;-59
2024/04/12 06:08:28;;;;;;;5.32;3.28;;;;;;;;;;5384920;26;20004;-58
2024/04/12 06:10:55;;;;;;;5.30;3.30;;;;;;;;;;5385319;26;20335;-56
2024/04/12 06:13:24;;;;;;;6.25;3.95;;;;;;;;;;5384920;26;20011;-57
2024/04/12 06:15:49;;;;;;;5.80;4.75;;;;;;;;;;5384912;26;20021;-57
2024/04/12 06:18:16;;;;;;;4.00;3.13;;;;;;;;;;5385561;26;19992;-57
2024/04/12 06:20:43;;;;;;;3.72;2.72;;;;;;;;;;5384852;26;20012;-57
2024/04/12 06:23:10;;;;;;;3.72;2.95;;;;;;;;;;5385116;26;19996;-56
2024/04/12 06:25:43;;;;;;;6.18;3.85;;;;;;;;;;5385016;26;20359;-58
2024/04/12 06:28:13;;;;;;;4.28;2.90;;;;;;;;;;5384819;26;20004;-58
2024/04/12 06:30:43;;;;;;;8.93;3.17;;;;;;;;;;5384696;26;20066;-58
2024/04/12 06:33:12;;;;;;;;;;;;;;;;;;5385413;26;19996;-58
2024/04/12 06:35:39;;;;;;;5.15;3.65;;;;;;;;;;5385130;26;20446;-58
2024/04/12 06:38:09;;;;;;;11.77;2.92;;;;;;;;;;5384993;26;20007;-57
2024/04/12 06:40:37;;;;;;;4.50;3.15;;;;;;;;;;5385095;26;19996;-58
2024/04/12 06:43:06;;;;;;;5.78;3.33;;;;;;;;;;5384562;26;20016;-58
2024/04/12 06:45:41;;;;;;;7.07;3.72;;;;;;;;;;5385265;26;19996;-58
2024/04/12 06:48:07;;;;;;;4.15;3.22;;;;;;;;;;5385085;26;20024;-57
2024/04/12 06:50:36;;;;;;;5.35;3.00;;;;;;;;;;5384871;26;20470;-58
2024/04/12 06:53:08;;;;;;;3.63;2.80;;;;;;;;;;5383628;26;19996;-57
2024/04/12 06:55:40;;;;;;;4.30;3.05;;;;;;;;;;5384850;26;19996;-58
2024/04/12 06:58:06;;;;;;;4.30;2.90;;;;;;;;;;5384641;26;20011;-57
2024/04/12 07:00:37;;;;;;;3.90;2.75;;;;;;;;;;5385088;26;20422;-58
2024/04/12 07:03:07;;;;;;;5.28;3.38;;;;;;;;;;5384376;26;20426;-57
2024/04/12 07:05:33;;;;;;;5.13;3.05;;;;;;;;;;5384413;26;20385;-58
2024/04/12 07:08:05;;;;;;;4.00;3.03;;;;;;;;;;5384317;26;20015;-57
2024/04/12 07:10:32;;;;;;;6.43;3.60;;;;;;;;;;5384262;26;20009;-57
2024/04/12 07:12:58;;;;;;;5.05;3.20;;;;;;;;;;5384492;26;20003;-57
2024/04/12 07:15:24;;;;;;;5.82;3.58;;;;;;;;;;5385139;26;20008;-57
2024/04/12 07:17:50;;;;;;;6.28;3.42;;;;;;;;;;5384415;26;19996;-57
2024/04/12 07:20:27;;;;;;;5.50;3.70;;;;;;;;;;5384976;26;20000;-58
2024/04/12 07:22:54;;;;;;;6.82;3.40;;;;;;;;;;5384230;26;20015;-58
2024/04/12 07:25:23;;;;;;;3.95;3.47;;;;;;;;;;5384084;26;20414;-58
2024/04/12 07:27:49;;;;;;;5.85;3.75;;;;;;;;;;5384097;26;20039;-58
2024/04/12 07:30:20;;;;;;;4.80;3.25;;;;;;;;;;5384540;26;20458;-58
2024/04/12 07:32:46;;;;;;;3.83;3.28;;;;;;;;;;5383859;26;20061;-57
2024/04/12 07:35:26;;;;;;;3.40;2.67;;;;;;;;;;5384193;26;20008;-57
2024/04/12 07:37:54;;;;;;;5.22;3.00;;;;;;;;;;5383888;26;19993;-57
2024/04/12 07:40:23;;;;;;;6.05;3.45;;;;;;;;;;5384251;26;20000;-58
2024/04/12 07:42:50;;;;;;;5.57;3.80;;;;;;;;;;5383844;26;19996;-57
2024/04/12 07:45:23;;;;;;;6.57;3.28;;;;;;;;;;5383782;26;19992;-58
2024/04/12 07:47:52;;;;;;;6.32;3.67;;;;;;;;;;5384028;26;20004;-58
2024/04/12 07:50:31;;;;;;;5.10;3.78;;;;;;;;;;5383782;26;20438;-58
2024/04/12 07:52:58;;;;;;;5.78;3.75;;;;;;;;;;5383995;26;19992;-58
2024/04/12 07:55:24;;;;;;;4.50;3.63;;;;;;;;;;5383682;26;20004;-58
2024/04/12 07:57:53;;;;;;;5.38;4.20;;;;;;;;;;5383658;26;20000;-58
2024/04/12 08:00:35;;;;;;;8.23;4.18;;;;;;;;;;5384054;26;20012;-58
2024/04/12 08:03:06;;;;;;;4.07;3.08;;;;;;;;;;5383615;26;19996;-57
2024/04/12 08:05:32;;;;;;;5.15;3.40;;;;;;;;;;5383636;26;20011;-58
2024/04/12 08:07:58;;;;;;;5.68;3.50;;;;;;;;;;5383667;26;19993;-56
2024/04/12 08:10:41;;;;;;;4.30;3.45;;;;;;;;;;5383797;26;20003;-57
2024/04/12 08:13:10;;;;;;;7.72;4.20;;;;;;;;;;5383802;26;20447;-57
2024/04/12 08:15:41;;;;;;;6.95;3.40;;;;;;;;;;5383429;26;20003;-57
2024/04/12 08:18:07;;;;;;;4.40;3.72;;;;;;;;;;5383937;26;20431;-58
2024/04/12 08:20:39;;;;;;;5.15;3.83;;;;;;;;;;5384009;26;20012;-58
2024/04/12 08:23:08;;;;;;;8.27;3.83;;;;;;;;;;5383429;26;20019;-57
2024/04/12 08:25:38;;;;;;;5.75;3.53;;;;;;;;;;5383304;26;20003;-57
2024/04/12 08:28:06;;;;;;;5.22;3.65;;;;;;;;;;5383224;26;20015;-58
2024/04/12 08:30:32;;;;;;;3.83;3.38;;;;;;;;;;5383501;26;20485;-58
2024/04/12 08:33:02;;;;;;;4.97;3.22;;;;;;;;;;5383448;26;20032;-58
2024/04/12 08:35:29;;;;;;;4.80;4.05;;;;;;;;;;5383179;26;20037;-58
2024/04/12 08:37:57;;;;;;;6.95;3.85;;;;;;;;;;5383093;26;19996;-58
2024/04/12 08:40:25;;;;;;;4.10;3.42;;;;;;;;;;5383451;26;20069;-57
2024/04/12 08:42:54;;;;;;;4.88;2.95;;;;;;;;;;5383394;26;20453;-58
2024/04/12 08:45:21;;;;;;;4.35;3.35;;;;;;;;;;5383240;26;20453;-58
2024/04/12 08:47:56;;;;;;;5.90;3.65;;;;;;;;;;5383047;26;20000;-58
2024/04/12 08:50:25;;;;;;;4.85;3.75;;;;;;;;;;5381564;26;20462;-57
2024/04/12 08:52:57;;;;;;;6.72;3.42;;;;;;;;;;5383131;26;20024;-58
2024/04/12 08:55:29;;;;;;;6.75;3.58;;;;;;;;;;5383003;26;20437;-58
2024/04/12 08:58:00;;;;;;;4.95;3.67;;;;;;;;;;5382795;26;20007;-57
2024/04/12 09:00:32;;;;;;;5.50;3.75;;;;;;;;;;5382856;26;20004;-58
2024/04/12 09:03:02;;;;;;;5.55;4.07;;;;;;;;;;5383029;26;20070;-58
2024/04/12 09:05:28;;;;;;;5.20;3.67;;;;;;;;;;5382614;26;19992;-57
2024/04/12 09:07:58;;;;;;;4.35;3.50;;;;;;;;;;5382487;26;20010;-58
2024/04/12 09:10:25;;;;;;;5.15;3.45;;;;;;;;;;5383028;26;20011;-58
2024/04/12 09:12:52;;;;;;;7.93;3.17;;;;;;;;;;5382686;26;19996;-58
2024/04/12 09:15:24;;;;;;;4.57;3.50;;;;;;;;;;5381753;26;20461;-58
2024/04/12 09:18:13;;;;;;;5.80;3.70;;;;;;;;;;5382381;26;20458;-59
2024/04/12 09:20:40;;;;;;;8.27;3.92;;;;;;;;;;5382492;26;19996;-58
2024/04/12 09:23:15;;;;;;;5.25;3.17;;;;;;;;;;5382420;26;20004;-57
2024/04/12 09:25:59;;;;;;;7.20;3.78;;;;;;;;;;5382250;26;19996;-58
2024/04/12 09:28:26;;;;;;;4.43;2.97;;;;;;;;;;5382227;26;20099;-58
2024/04/12 09:33:38;;;;;;;4.72;3.33;;;;;;;;;;5383734;26;20011;-58
2024/04/12 09:36:05;;;;;;;5.75;3.45;;;;;;;;;;5382061;26;20354;-58
2024/04/12 09:38:32;;;;;;;4.60;3.05;;;;;;;;;;5382063;26;20012;-58
2024/04/12 09:41:27;;;;;;;5.75;3.50;;;;;;;;;;5382230;26;19992;-58
2024/04/12 09:43:50;;;;;;;6.00;3.58;;;;;;;;;;5381804;26;20074;-58
2024/04/12 09:46:23;;;;;;;4.07;2.63;;;;;;;;;;5382145;26;19996;-58
2024/04/12 10:38:47;;;;;;;4.40;4.00;;;;;;;;;;5385802;26;20033;-58
2024/04/12 10:41:14;;;;;;;5.90;3.53;;;;;;;;;;5384583;26;19992;-59
2024/04/12 10:43:43;;;;;;;7.13;3.53;;;;;;;;;;5384165;26;20334;-58
2024/04/12 10:46:13;;;;;;;4.45;3.83;;;;;;;;;;5384309;26;20000;-59
2024/04/12 10:48:42;;;;;;;5.90;4.00;;;;;;;;;;5384533;26;20024;-58
2024/04/12 10:51:08;;;;;;;4.90;4.40;;;;;;;;;;5384244;26;20007;-58
2024/04/12 10:53:38;;;;;;;7.53;4.32;;;;;;;;;;5384282;26;20003;-59
2024/04/12 10:56:07;;;;;;;6.18;4.10;;;;;;;;;;5384225;26;19992;-58
2024/04/12 10:58:33;;;;;;;4.85;4.13;;;;;;;;;;5384296;26;20016;-58
2024/04/12 11:01:04;;;;;;;8.65;4.38;;;;;;;;;;5384074;26;20008;-58
2024/04/12 11:03:30;;;;;;;;;;;;;;;;;;5384972;26;20006;-58
2024/04/12 11:06:17;;;;;;;4.40;3.63;;;;;;;;;;5384248;26;19933;-59
2024/04/12 11:08:42;;;;;;;4.85;3.95;;;;;;;;;;5384304;26;20036;-59
2024/04/12 11:11:19;;;;;;;6.18;4.05;;;;;;;;;;5384090;26;20008;-59
2024/04/12 11:13:47;;;;;;;8.40;4.13;;;;;;;;;;5384254;26;20000;-59
2024/04/12 11:32:42;;;;;;;5.28;3.85;;;;;;;;;;5385148;26;20023;-59
2024/04/12 11:35:11;;;;;;;9.50;3.67;;;;;;;;;;5383724;26;20000;-59
2024/04/12 11:37:40;;;;;;;4.47;3.65;;;;;;;;;;5383175;26;20000;-59
2024/04/12 11:40:16;;;;;;;5.55;3.47;;;;;;;;;;5384133;26;20008;-58
2024/04/12 11:42:42;;;;;;;4.15;3.65;;;;;;;;;;5384298;26;20006;-60
2024/04/12 11:45:10;;;;;;;5.10;4.03;;;;;;;;;;5383762;26;20004;-58
2024/04/12 11:47:36;;;;;;;4.15;3.03;;;;;;;;;;5383573;26;19996;-58
2024/04/12 11:50:10;;;;;;;5.60;3.70;;;;;;;;;;5384164;26;19996;-58
2024/04/12 11:52:36;;;;;;;6.43;3.92;;;;;;;;;;5384105;26;20007;-58
2024/04/12 11:55:06;;;;;;;6.45;4.07;;;;;;;;;;5383451;26;19996;-58
2024/04/12 11:57:36;;;;;;;3.97;3.20;;;;;;;;;;5383831;26;19996;-58
2024/04/12 12:00:08;;;;;;;;;;;;;;;;;;5384267;26;20061;-58
2024/04/12 12:02:34;;;;;;;4.53;2.67;;;;;;;;;;5383423;26;19934;-58
2024/04/12 12:05:00;;;;;;;5.40;3.63;;;;;;;;;;5383181;26;20020;-58
2024/04/12 12:07:27;;;;;;;6.53;3.70;;;;;;;;;;5383224;26;20326;-58
2024/04/12 12:09:52;;;;;;;4.45;3.60;;;;;;;;;;5384039;26;19992;-58
2024/04/12 12:12:22;;;;;;;3.85;3.20;;;;;;;;;;5383859;26;20457;-58
2024/04/12 12:14:51;;;;;;;5.82;3.13;;;;;;;;;;5383488;26;19996;-58
2024/04/12 12:17:18;;;;;;;6.45;3.83;;;;;;;;;;5383515;26;19996;-59
2024/04/12 12:19:46;;;;;;;5.30;3.22;;;;;;;;;;5383773;26;20352;-58
2024/04/12 12:22:12;;;;;;;4.45;3.03;;;;;;;;;;5383406;26;19997;-58
2024/04/12 12:24:38;;;;;;;9.38;4.53;;;;;;;;;;5383373;26;20318;-58
2024/04/12 12:27:08;;;;;;;4.28;3.42;;;;;;;;;;5383383;26;20310;-58
2024/04/12 12:29:35;;;;;;;5.13;3.38;;;;;;;;;;5383699;26;20004;-58
2024/04/12 12:32:01;;;;;;;6.43;4.72;;;;;;;;;;5383012;26;20008;-58
2024/04/12 12:34:27;;;;;;;5.40;3.55;;;;;;;;;;5383431;26;20430;-58
2024/04/12 12:36:59;;;;;;;4.18;3.08;;;;;;;;;;5383302;26;20000;-60
2024/04/12 12:39:30;;;;;;;6.60;3.70;;;;;;;;;;5383930;26;19992;-59
2024/04/12 12:41:56;;;;;;;4.40;3.25;;;;;;;;;;5383825;26;20011;-59
2024/04/12 12:44:22;;;;;;;4.72;2.97;;;;;;;;;;5383088;26;20318;-59
2024/04/12 12:46:48;;;;;;;5.35;4.10;;;;;;;;;;5383131;26;19996;-59
2024/04/12 12:49:25;;;;;;;4.25;3.08;;;;;;;;;;5382789;26;20004;-59
2024/04/12 12:51:51;;;;;;;6.68;4.50;;;;;;;;;;5383579;26;19996;-59
2024/04/12 12:54:18;;;;;;;5.10;3.95;;;;;;;;;;5383208;26;20004;-59
2024/04/12 12:56:44;;;;;;;6.32;3.92;;;;;;;;;;5383017;26;20065;-59
2024/04/12 12:59:10;;;;;;;6.43;4.53;;;;;;;;;;5382699;26;19996;-59
2024/04/12 13:01:36;;;;;;;5.60;3.50;;;;;;;;;;5382601;26;20094;-59
2024/04/12 13:04:07;;;;;;;6.22;4.28;;;;;;;;;;5382668;26;19996;-60
2024/04/12 13:06:34;;;;;;;;;;;;;;;;;;5383776;26;20012;-59
2024/04/12 13:09:00;;;;;;;5.55;4.85;;;;;;;;;;5382799;26;19925;-59
2024/04/12 13:11:27;;;;;;;5.68;4.97;;;;;;;;;;5382439;26;20011;-59
2024/04/12 13:13:53;;;;;;;7.70;5.45;;;;;;;;;;5381989;26;20023;-59
2024/04/12 13:16:19;;;;;;;8.90;5.47;;;;;;;;;;5382301;26;20007;-59
2024/04/12 13:18:45;;;;;;;6.53;5.15;;;;;;;;;;5382768;26;20370;-59
2024/04/12 13:21:14;;;;;;;7.30;4.80;;;;;;;;;;5382219;26;19996;-59
2024/04/12 13:23:41;;;;;;;7.03;4.57;;;;;;;;;;5382287;26;20005;-59
2024/04/12 13:26:08;;;;;;;8.18;6.13;;;;;;;;;;5382291;26;20004;-59
2024/04/12 13:28:34;;;;;;;7.95;5.53;;;;;;;;;;5382173;26;20011;-59
2024/04/12 13:31:00;;;;;;;6.03;5.22;;;;;;;;;;5382820;26;20326;-59
2024/04/12 13:33:26;;;;;;;7.70;5.72;;;;;;;;;;5382323;26;20004;-60
2024/04/12 13:35:53;;;;;;;8.60;5.57;;;;;;;;;;5381937;26;20025;-58
2024/04/12 13:38:20;;;;;;;11.13;5.85;;;;;;;;;;5382009;26;20000;-58
2024/04/12 13:40:47;;;;;;;7.65;5.78;;;;;;;;;;5382219;26;20045;-58
2024/04/12 13:43:16;;;;;;;5.72;4.97;;;;;;;;;;5382139;26;20470;-58
2024/04/12 13:51:20;;;;;;;6.82;5.57;;;;;;;;;;5383424;26;20036;-60
2024/04/12 13:53:50;;;;;;;9.25;7.13;;;;;;;;;;5381936;26;20031;-57
2024/04/12 13:58:53;;;;;;;6.95;5.25;;;;;;;;;;5382417;26;19996;-57
2024/04/12 14:01:23;;;;;;;11.30;5.65;;;;;;;;;;5383036;26;19997;-59
2024/04/12 14:03:50;;;;;;;7.18;5.70;;;;;;;;;;5385725;26;19996;-58
2024/04/12 14:06:18;;;;;;;8.02;4.95;;;;;;;;;;5385369;26;20000;-58
2024/04/12 14:08:44;;;;;;;6.53;4.47;;;;;;;;;;5385017;26;20005;-58
2024/04/12 14:11:10;;;;;;;11.95;5.00;;;;;;;;;;5385064;26;19992;-58
2024/04/12 14:13:36;;;;;;;6.85;4.63;;;;;;;;;;5385055;26;19993;-58
2024/04/12 14:16:03;;;;;;;10.52;4.57;;;;;;;;;;5384783;26;20007;-58
2024/04/12 14:18:29;;;;;;;8.35;5.07;;;;;;;;;;5384772;26;20007;-57
2024/04/12 14:20:57;;;;;;;5.10;3.78;;;;;;;;;;5384696;26;19997;-58
2024/04/12 14:23:24;;;;;;;7.22;4.18;;;;;;;;;;5385068;26;20326;-59
2024/04/12 14:25:50;;;;;;;4.95;3.33;;;;;;;;;;5384791;26;20011;-58
2024/04/12 14:28:16;;;;;;;8.85;3.95;;;;;;;;;;5384745;26;20042;-58
2024/04/12 14:30:42;;;;;;;7.75;3.88;;;;;;;;;;5384696;26;20004;-58
2024/04/12 14:33:08;;;;;;;6.90;3.92;;;;;;;;;;5384927;26;20016;-58
2024/04/12 14:35:41;;;;;;;8.48;4.07;;;;;;;;;;5384496;26;20401;-58
2024/04/12 14:38:07;;;;;;;3.65;3.13;;;;;;;;;;5384628;26;19992;-58
2024/04/12 14:40:35;;;;;;;4.18;3.35;;;;;;;;;;5384900;26;19997;-57
2024/04/12 14:43:05;;;;;;;5.97;2.55;;;;;;;;;;5384429;26;20457;-57
2024/04/12 14:45:33;;;;;;;4.72;2.35;;;;;;;;;;5384614;26;20011;-58
2024/04/12 14:47:59;;;;;;;4.00;2.80;;;;;;;;;;5384554;26;20070;-57
2024/04/12 14:50:25;;;;;;;4.43;2.30;;;;;;;;;;5384781;26;20458;-57
2024/04/12 14:52:51;;;;;;;3.95;1.88;;;;;;;;;;5384626;26;20363;-57
2024/04/12 14:55:18;;;;;;;4.03;2.50;;;;;;;;;;5384672;26;20007;-57
2024/04/12 14:57:47;;;;;;;3.97;2.67;;;;;;;;;;5384228;26;20330;-57
2024/04/12 15:00:20;;;;;;;5.18;2.28;;;;;;;;;;5384023;26;20000;-58
2024/04/12 15:52:10;;;;;;;3.25;1.92;;;;;;;;;;5384652;26;20011;-60
2024/04/12 15:54:45;;;;;;;3.22;2.05;;;;;;;;;;5381687;26;20000;-58
2024/04/12 16:10:56;;;;;;;3.55;2.17;;;;;;;;;;5384365;26;20007;-58
2024/04/12 16:13:26;;;;;;;3.10;1.98;;;;;;;;;;5383187;26;20069;-58
2024/04/12 16:15:52;;;;;;;4.18;1.77;;;;;;;;;;5383464;26;20007;-58
2024/04/12 16:18:18;;;;;;;3.03;2.08;;;;;;;;;;5383347;26;20000;-58
2024/04/12 16:20:44;;;;;;;5.72;2.58;;;;;;;;;;5383436;26;20002;-58
2024/04/12 16:23:16;;;;;;;5.75;2.25;;;;;;;;;;5383268;26;20000;-58
2024/04/12 16:25:42;;;;;;;4.25;2.50;;;;;;;;;;5383374;26;20003;-58
2024/04/12 16:28:08;;;;;;;6.32;2.55;;;;;;;;;;5383310;26;19992;-58
2024/04/12 16:30:33;;;;;;;9.85;5.15;;;;;;;;;;5383324;26;19999;-58
2024/04/12 16:32:59;;;;;;;6.90;4.07;;;;;;;;;;5383485;26;19996;-58
2024/04/12 16:35:25;;;;;;;4.68;2.38;;;;;;;;;;5383130;26;20001;-58
2024/04/12 16:37:51;;;;;;;3.90;2.25;;;;;;;;;;5383247;26;20008;-58
2024/04/12 16:40:18;;;;;;;3.05;1.48;;;;;;;;;;5383059;26;19996;-58
2024/04/12 16:42:44;;;;;;;3.60;1.85;;;;;;;;;;5382981;26;19996;-58
2024/04/12 16:45:10;;;;;;;4.05;2.42;;;;;;;;;;5382875;26;20006;-58
2024/04/12 16:47:36;;;;;;;2.80;1.77;;;;;;;;;;5382857;26;20020;-58
2024/04/12 16:50:04;;;;;;;3.67;2.00;;;;;;;;;;5382838;26;20024;-59
2024/04/12 16:52:30;;;;;;;3.17;1.73;;;;;;;;;;5382697;26;20465;-59
2024/04/12 16:54:56;;;;;;;3.08;1.67;;;;;;;;;;5383121;26;19996;-59
2024/04/12 16:57:22;;;;;;;2.75;1.75;;;;;;;;;;5383048;26;20115;-59
2024/04/12 16:59:48;;;;;;;3.47;1.83;;;;;;;;;;5382740;26;19996;-59
2024/04/12 17:02:14;;;;;;;7.53;2.47;;;;;;;;;;5382574;26;19996;-59
2024/04/12 17:04:40;;;;;;;5.10;3.03;;;;;;;;;;5382573;26;20007;-59
2024/04/12 17:07:06;;;;;;;3.00;2.10;;;;;;;;;;5382719;26;20004;-59
2024/04/12 17:09:32;;;;;;;4.22;2.00;;;;;;;;;;5381450;26;20066;-59
2024/04/12 17:11:58;;;;;;;3.05;2.03;;;;;;;;;;5382397;26;19996;-59
2024/04/12 17:14:24;;;;;;;3.13;1.70;;;;;;;;;;5382371;26;20004;-59
2024/04/12 17:16:50;;;;;;;5.60;1.88;;;;;;;;;;5382618;26;19997;-59
2024/04/12 17:19:16;;;;;;;5.45;1.52;;;;;;;;;;5382790;26;19992;-59